Airport View

Enter AWOS ICAO identifier for current METAR.

ex. KFNL

KGLW 191855Z AUTO 28011KT 10SM SCT037 M01/M10 A3031 RMK AO2 T10081104

19 Jan 2020 19:18

Frequency: 118.525

Phone: 270-678-5787

Other Area AWOS: KBWG - KTZV - K1M5 - KAAS

TAF KBWG 191720Z 1918/2018 31010G18KT P6SM FEW030 FM192300 33009KT P6SM FEW030 FM200900 35005KT P6SM SCT030